sensor_id;sensor_type;location;lat;lon;timestamp;P1;durP1;ratioP1;P2;durP2;ratioP2
15130;SDS011;7666;50.920;4.628;2022-09-09T00:03:50;2.50;;;1.07;;
15130;SDS011;7666;50.920;4.628;2022-09-09T00:06:45;3.10;;;1.30;;
15130;SDS011;7666;50.920;4.628;2022-09-09T00:09:46;2.73;;;1.00;;
15130;SDS011;7666;50.920;4.628;2022-09-09T00:15:32;2.60;;;1.00;;
15130;SDS011;7666;50.920;4.628;2022-09-09T00:18:23;2.27;;;1.10;;
15130;SDS011;7666;50.920;4.628;2022-09-09T00:21:11;3.50;;;1.10;;
15130;SDS011;7666;50.920;4.628;2022-09-09T00:24:01;3.17;;;1.33;;
15130;SDS011;7666;50.920;4.628;2022-09-09T00:26:48;5.73;;;1.60;;
15130;SDS011;7666;50.920;4.628;2022-09-09T00:29:58;4.63;;;1.20;;
15130;SDS011;7666;50.920;4.628;2022-09-09T00:32:44;3.97;;;1.43;;
15130;SDS011;7666;50.920;4.628;2022-09-09T00:35:34;3.00;;;1.00;;
15130;SDS011;7666;50.920;4.628;2022-09-09T00:38:36;4.63;;;1.23;;
15130;SDS011;7666;50.920;4.628;2022-09-09T00:47:12;2.47;;;1.17;;
15130;SDS011;7666;50.920;4.628;2022-09-09T00:56:02;2.67;;;1.17;;
15130;SDS011;7666;50.920;4.628;2022-09-09T00:59:00;4.70;;;1.23;;
15130;SDS011;7666;50.920;4.628;2022-09-09T01:01:50;2.33;;;1.10;;
15130;SDS011;7666;50.920;4.628;2022-09-09T01:04:37;6.40;;;1.10;;
15130;SDS011;7666;50.920;4.628;2022-09-09T01:07:23;3.27;;;1.40;;
15130;SDS011;7666;50.920;4.628;2022-09-09T01:13:34;5.63;;;1.60;;
15130;SDS011;7666;50.920;4.628;2022-09-09T01:16:21;5.27;;;1.43;;
15130;SDS011;7666;50.920;4.628;2022-09-09T01:19:09;8.63;;;1.80;;
15130;SDS011;7666;50.920;4.628;2022-09-09T01:22:10;3.57;;;1.30;;
15130;SDS011;7666;50.920;4.628;2022-09-09T01:27:59;3.80;;;1.43;;
15130;SDS011;7666;50.920;4.628;2022-09-09T01:30:46;4.40;;;1.50;;
15130;SDS011;7666;50.920;4.628;2022-09-09T01:33:33;6.07;;;1.50;;
15130;SDS011;7666;50.920;4.628;2022-09-09T01:36:21;3.93;;;1.40;;
15130;SDS011;7666;50.920;4.628;2022-09-09T01:39:10;5.40;;;1.73;;
15130;SDS011;7666;50.920;4.628;2022-09-09T01:41:57;6.60;;;1.53;;
15130;SDS011;7666;50.920;4.628;2022-09-09T01:44:44;6.27;;;1.97;;
15130;SDS011;7666;50.920;4.628;2022-09-09T01:47:30;7.93;;;1.67;;
15130;SDS011;7666;50.920;4.628;2022-09-09T01:50:16;4.17;;;1.67;;
15130;SDS011;7666;50.920;4.628;2022-09-09T01:53:04;8.00;;;1.73;;
15130;SDS011;7666;50.920;4.628;2022-09-09T02:02:07;7.90;;;2.23;;
15130;SDS011;7666;50.920;4.628;2022-09-09T02:04:56;3.43;;;1.80;;
15130;SDS011;7666;50.920;4.628;2022-09-09T02:07:50;6.90;;;1.97;;
15130;SDS011;7666;50.920;4.628;2022-09-09T02:10:46;4.60;;;1.87;;
15130;SDS011;7666;50.920;4.628;2022-09-09T02:13:34;5.97;;;1.60;;
15130;SDS011;7666;50.920;4.628;2022-09-09T02:19:16;4.63;;;2.00;;
15130;SDS011;7666;50.920;4.628;2022-09-09T02:22:09;5.33;;;1.90;;
15130;SDS011;7666;50.920;4.628;2022-09-09T02:24:56;7.43;;;1.90;;
15130;SDS011;7666;50.920;4.628;2022-09-09T02:27:44;5.53;;;1.63;;
15130;SDS011;7666;50.920;4.628;2022-09-09T02:30:32;7.80;;;2.00;;
15130;SDS011;7666;50.920;4.628;2022-09-09T02:33:19;9.83;;;2.10;;
15130;SDS011;7666;50.920;4.628;2022-09-09T02:36:07;5.30;;;1.77;;
15130;SDS011;7666;50.920;4.628;2022-09-09T02:38:54;5.37;;;1.90;;
15130;SDS011;7666;50.920;4.628;2022-09-09T02:41:42;7.90;;;1.97;;
15130;SDS011;7666;50.920;4.628;2022-09-09T02:44:28;6.77;;;1.77;;
15130;SDS011;7666;50.920;4.628;2022-09-09T02:47:34;6.07;;;1.93;;
15130;SDS011;7666;50.920;4.628;2022-09-09T02:53:18;5.20;;;1.67;;
15130;SDS011;7666;50.920;4.628;2022-09-09T02:56:09;7.87;;;1.80;;
15130;SDS011;7666;50.920;4.628;2022-09-09T02:58:58;6.43;;;1.63;;
15130;SDS011;7666;50.920;4.628;2022-09-09T03:01:44;8.03;;;2.20;;
15130;SDS011;7666;50.920;4.628;2022-09-09T03:04:31;4.97;;;1.83;;
15130;SDS011;7666;50.920;4.628;2022-09-09T03:07:18;7.70;;;2.00;;
15130;SDS011;7666;50.920;4.628;2022-09-09T03:10:04;9.80;;;2.13;;
15130;SDS011;7666;50.920;4.628;2022-09-09T03:12:51;9.23;;;1.63;;
15130;SDS011;7666;50.920;4.628;2022-09-09T03:15:37;9.37;;;2.00;;
15130;SDS011;7666;50.920;4.628;2022-09-09T03:18:24;6.93;;;1.90;;
15130;SDS011;7666;50.920;4.628;2022-09-09T03:21:10;10.17;;;1.93;;
15130;SDS011;7666;50.920;4.628;2022-09-09T03:23:57;7.43;;;1.70;;
15130;SDS011;7666;50.920;4.628;2022-09-09T03:26:43;6.70;;;1.90;;
15130;SDS011;7666;50.920;4.628;2022-09-09T03:29:30;6.20;;;1.80;;
15130;SDS011;7666;50.920;4.628;2022-09-09T03:32:16;6.50;;;1.80;;
15130;SDS011;7666;50.920;4.628;2022-09-09T03:35:03;6.07;;;1.67;;
15130;SDS011;7666;50.920;4.628;2022-09-09T03:37:49;13.70;;;2.43;;
15130;SDS011;7666;50.920;4.628;2022-09-09T03:40:36;8.37;;;1.77;;
15130;SDS011;7666;50.920;4.628;2022-09-09T03:43:22;8.10;;;1.73;;
15130;SDS011;7666;50.920;4.628;2022-09-09T03:46:09;5.47;;;1.67;;
15130;SDS011;7666;50.920;4.628;2022-09-09T03:48:56;8.43;;;2.10;;
15130;SDS011;7666;50.920;4.628;2022-09-09T03:51:42;6.93;;;1.70;;
15130;SDS011;7666;50.920;4.628;2022-09-09T03:54:28;11.87;;;2.13;;
15130;SDS011;7666;50.920;4.628;2022-09-09T03:57:15;10.80;;;2.07;;
15130;SDS011;7666;50.920;4.628;2022-09-09T04:00:06;9.13;;;2.03;;
15130;SDS011;7666;50.920;4.628;2022-09-09T04:02:53;8.23;;;1.90;;
15130;SDS011;7666;50.920;4.628;2022-09-09T04:05:42;7.80;;;2.10;;
15130;SDS011;7666;50.920;4.628;2022-09-09T04:08:28;8.00;;;2.10;;
15130;SDS011;7666;50.920;4.628;2022-09-09T04:11:16;7.50;;;1.83;;
15130;SDS011;7666;50.920;4.628;2022-09-09T04:14:03;7.93;;;2.30;;
15130;SDS011;7666;50.920;4.628;2022-09-09T04:16:51;6.60;;;1.70;;
15130;SDS011;7666;50.920;4.628;2022-09-09T04:19:37;7.60;;;1.80;;
15130;SDS011;7666;50.920;4.628;2022-09-09T04:22:24;8.33;;;2.10;;
15130;SDS011;7666;50.920;4.628;2022-09-09T04:25:10;6.20;;;1.80;;
15130;SDS011;7666;50.920;4.628;2022-09-09T04:27:57;9.27;;;2.10;;
15130;SDS011;7666;50.920;4.628;2022-09-09T04:30:43;4.57;;;1.70;;
15130;SDS011;7666;50.920;4.628;2022-09-09T04:33:30;9.23;;;1.93;;
15130;SDS011;7666;50.920;4.628;2022-09-09T04:36:17;8.73;;;1.83;;
15130;SDS011;7666;50.920;4.628;2022-09-09T04:39:04;9.13;;;2.00;;
15130;SDS011;7666;50.920;4.628;2022-09-09T04:41:51;8.87;;;1.97;;
15130;SDS011;7666;50.920;4.628;2022-09-09T04:44:38;11.40;;;2.03;;
15130;SDS011;7666;50.920;4.628;2022-09-09T04:47:26;7.57;;;2.47;;
15130;SDS011;7666;50.920;4.628;2022-09-09T04:50:12;7.10;;;2.10;;
15130;SDS011;7666;50.920;4.628;2022-09-09T04:53:02;8.70;;;1.67;;
15130;SDS011;7666;50.920;4.628;2022-09-09T04:55:50;9.57;;;2.07;;
15130;SDS011;7666;50.920;4.628;2022-09-09T04:58:36;8.87;;;1.90;;
15130;SDS011;7666;50.920;4.628;2022-09-09T05:01:23;9.97;;;2.30;;
15130;SDS011;7666;50.920;4.628;2022-09-09T05:04:09;8.10;;;2.13;;
15130;SDS011;7666;50.920;4.628;2022-09-09T05:06:56;10.13;;;2.10;;
15130;SDS011;7666;50.920;4.628;2022-09-09T05:09:42;8.57;;;2.30;;
15130;SDS011;7666;50.920;4.628;2022-09-09T05:12:30;7.23;;;2.20;;
15130;SDS011;7666;50.920;4.628;2022-09-09T05:15:17;6.63;;;2.03;;
15130;SDS011;7666;50.920;4.628;2022-09-09T05:18:03;9.03;;;2.30;;
15130;SDS011;7666;50.920;4.628;2022-09-09T05:20:50;9.67;;;2.50;;
15130;SDS011;7666;50.920;4.628;2022-09-09T05:23:36;8.97;;;2.10;;
15130;SDS011;7666;50.920;4.628;2022-09-09T05:26:23;10.77;;;2.37;;
15130;SDS011;7666;50.920;4.628;2022-09-09T05:29:09;12.13;;;2.90;;
15130;SDS011;7666;50.920;4.628;2022-09-09T05:31:56;7.27;;;1.90;;
15130;SDS011;7666;50.920;4.628;2022-09-09T05:34:42;9.93;;;2.30;;
15130;SDS011;7666;50.920;4.628;2022-09-09T05:37:28;10.87;;;2.47;;
15130;SDS011;7666;50.920;4.628;2022-09-09T05:40:16;10.33;;;2.53;;
15130;SDS011;7666;50.920;4.628;2022-09-09T05:43:04;7.93;;;2.13;;
15130;SDS011;7666;50.920;4.628;2022-09-09T05:46:06;8.33;;;1.83;;
15130;SDS011;7666;50.920;4.628;2022-09-09T05:48:53;10.13;;;2.03;;
15130;SDS011;7666;50.920;4.628;2022-09-09T05:51:40;9.10;;;1.90;;
15130;SDS011;7666;50.920;4.628;2022-09-09T05:54:28;5.53;;;1.40;;
15130;SDS011;7666;50.920;4.628;2022-09-09T05:57:14;8.53;;;2.00;;
15130;SDS011;7666;50.920;4.628;2022-09-09T06:00:00;7.67;;;1.70;;
15130;SDS011;7666;50.920;4.628;2022-09-09T06:02:51;8.47;;;1.87;;
15130;SDS011;7666;50.920;4.628;2022-09-09T06:05:37;7.23;;;1.80;;
15130;SDS011;7666;50.920;4.628;2022-09-09T06:08:24;10.23;;;1.93;;
15130;SDS011;7666;50.920;4.628;2022-09-09T06:11:12;10.43;;;2.07;;
15130;SDS011;7666;50.920;4.628;2022-09-09T06:13:59;7.90;;;1.90;;
15130;SDS011;7666;50.920;4.628;2022-09-09T06:16:46;6.60;;;2.00;;
15130;SDS011;7666;50.920;4.628;2022-09-09T06:19:32;8.57;;;2.03;;
15130;SDS011;7666;50.920;4.628;2022-09-09T06:22:18;8.33;;;1.97;;
15130;SDS011;7666;50.920;4.628;2022-09-09T06:25:05;6.93;;;2.00;;
15130;SDS011;7666;50.920;4.628;2022-09-09T06:27:51;10.77;;;2.03;;
15130;SDS011;7666;50.920;4.628;2022-09-09T06:30:38;8.03;;;1.90;;
15130;SDS011;7666;50.920;4.628;2022-09-09T06:33:25;7.97;;;1.83;;
15130;SDS011;7666;50.920;4.628;2022-09-09T06:36:13;8.37;;;2.40;;
15130;SDS011;7666;50.920;4.628;2022-09-09T06:39:00;8.77;;;1.70;;
15130;SDS011;7666;50.920;4.628;2022-09-09T06:41:47;7.30;;;1.93;;
15130;SDS011;7666;50.920;4.628;2022-09-09T06:44:33;8.80;;;1.93;;
15130;SDS011;7666;50.920;4.628;2022-09-09T06:47:20;9.50;;;2.03;;
15130;SDS011;7666;50.920;4.628;2022-09-09T06:50:06;8.93;;;1.90;;
15130;SDS011;7666;50.920;4.628;2022-09-09T06:52:53;6.93;;;1.93;;
15130;SDS011;7666;50.920;4.628;2022-09-09T06:55:39;6.47;;;1.80;;
15130;SDS011;7666;50.920;4.628;2022-09-09T06:58:29;8.00;;;1.80;;
15130;SDS011;7666;50.920;4.628;2022-09-09T07:01:17;7.03;;;1.80;;
15130;SDS011;7666;50.920;4.628;2022-09-09T07:04:04;7.30;;;2.40;;
15130;SDS011;7666;50.920;4.628;2022-09-09T07:06:53;5.20;;;1.80;;
15130;SDS011;7666;50.920;4.628;2022-09-09T07:09:39;11.13;;;2.37;;
15130;SDS011;7666;50.920;4.628;2022-09-09T07:12:26;7.13;;;1.77;;
15130;SDS011;7666;50.920;4.628;2022-09-09T07:15:12;8.57;;;2.10;;
15130;SDS011;7666;50.920;4.628;2022-09-09T07:18:00;8.30;;;1.87;;
15130;SDS011;7666;50.920;4.628;2022-09-09T07:20:54;8.40;;;1.97;;
15130;SDS011;7666;50.920;4.628;2022-09-09T07:23:42;7.87;;;2.00;;
15130;SDS011;7666;50.920;4.628;2022-09-09T07:26:29;7.90;;;2.00;;
15130;SDS011;7666;50.920;4.628;2022-09-09T07:29:16;7.00;;;2.30;;
15130;SDS011;7666;50.920;4.628;2022-09-09T07:32:02;7.40;;;1.73;;
15130;SDS011;7666;50.920;4.628;2022-09-09T07:34:49;7.33;;;1.93;;
15130;SDS011;7666;50.920;4.628;2022-09-09T07:37:36;6.37;;;1.70;;
15130;SDS011;7666;50.920;4.628;2022-09-09T07:40:23;11.63;;;2.60;;
15130;SDS011;7666;50.920;4.628;2022-09-09T07:43:10;7.83;;;2.20;;
15130;SDS011;7666;50.920;4.628;2022-09-09T07:45:57;7.03;;;2.13;;
15130;SDS011;7666;50.920;4.628;2022-09-09T07:48:44;9.67;;;2.27;;
15130;SDS011;7666;50.920;4.628;2022-09-09T07:51:32;8.13;;;1.93;;
15130;SDS011;7666;50.920;4.628;2022-09-09T07:54:19;7.63;;;2.20;;
15130;SDS011;7666;50.920;4.628;2022-09-09T07:57:08;7.23;;;2.00;;
15130;SDS011;7666;50.920;4.628;2022-09-09T07:59:55;7.57;;;2.13;;
15130;SDS011;7666;50.920;4.628;2022-09-09T08:02:41;8.40;;;1.93;;
15130;SDS011;7666;50.920;4.628;2022-09-09T08:05:28;10.83;;;2.07;;
15130;SDS011;7666;50.920;4.628;2022-09-09T08:08:14;6.17;;;2.00;;
15130;SDS011;7666;50.920;4.628;2022-09-09T08:11:06;7.27;;;1.90;;
15130;SDS011;7666;50.920;4.628;2022-09-09T08:13:53;8.60;;;1.93;;
15130;SDS011;7666;50.920;4.628;2022-09-09T08:16:41;9.37;;;2.00;;
15130;SDS011;7666;50.920;4.628;2022-09-09T08:19:27;6.70;;;1.63;;
15130;SDS011;7666;50.920;4.628;2022-09-09T08:22:19;8.73;;;1.70;;
15130;SDS011;7666;50.920;4.628;2022-09-09T08:25:07;7.83;;;2.07;;
15130;SDS011;7666;50.920;4.628;2022-09-09T08:27:55;5.57;;;1.87;;
15130;SDS011;7666;50.920;4.628;2022-09-09T08:30:42;5.57;;;1.70;;
15130;SDS011;7666;50.920;4.628;2022-09-09T08:33:28;9.87;;;1.77;;
15130;SDS011;7666;50.920;4.628;2022-09-09T08:36:15;9.17;;;2.03;;
15130;SDS011;7666;50.920;4.628;2022-09-09T08:39:03;9.00;;;1.77;;
15130;SDS011;7666;50.920;4.628;2022-09-09T08:50:54;8.07;;;1.80;;
15130;SDS011;7666;50.920;4.628;2022-09-09T08:53:48;8.80;;;1.80;;
15130;SDS011;7666;50.920;4.628;2022-09-09T08:56:35;9.47;;;2.00;;
15130;SDS011;7666;50.920;4.628;2022-09-09T08:59:22;8.13;;;1.87;;
15130;SDS011;7666;50.920;4.628;2022-09-09T09:02:15;10.87;;;2.00;;
15130;SDS011;7666;50.920;4.628;2022-09-09T09:08:26;6.13;;;2.00;;
15130;SDS011;7666;50.920;4.628;2022-09-09T09:11:15;8.83;;;2.27;;
15130;SDS011;7666;50.920;4.628;2022-09-09T09:14:17;7.63;;;1.80;;
15130;SDS011;7666;50.920;4.628;2022-09-09T09:17:07;7.57;;;1.80;;
15130;SDS011;7666;50.920;4.628;2022-09-09T09:19:56;7.77;;;1.73;;
15130;SDS011;7666;50.920;4.628;2022-09-09T09:22:49;9.13;;;2.17;;
15130;SDS011;7666;50.920;4.628;2022-09-09T09:25:37;5.30;;;1.57;;
15130;SDS011;7666;50.920;4.628;2022-09-09T09:28:27;7.87;;;1.90;;
15130;SDS011;7666;50.920;4.628;2022-09-09T09:31:14;6.60;;;1.60;;
15130;SDS011;7666;50.920;4.628;2022-09-09T09:34:01;7.70;;;1.90;;
15130;SDS011;7666;50.920;4.628;2022-09-09T09:36:54;7.77;;;1.93;;
15130;SDS011;7666;50.920;4.628;2022-09-09T09:39:42;5.43;;;1.50;;
15130;SDS011;7666;50.920;4.628;2022-09-09T09:42:28;5.90;;;1.97;;
15130;SDS011;7666;50.920;4.628;2022-09-09T09:45:15;7.60;;;2.00;;
15130;SDS011;7666;50.920;4.628;2022-09-09T09:48:04;10.33;;;2.10;;
15130;SDS011;7666;50.920;4.628;2022-09-09T09:53:37;13.37;;;4.93;;
15130;SDS011;7666;50.920;4.628;2022-09-09T09:56:27;7.60;;;2.20;;
15130;SDS011;7666;50.920;4.628;2022-09-09T10:08:01;7.50;;;2.10;;
15130;SDS011;7666;50.920;4.628;2022-09-09T10:19:20;7.00;;;2.00;;
15130;SDS011;7666;50.920;4.628;2022-09-09T10:22:26;8.20;;;2.07;;
15130;SDS011;7666;50.920;4.628;2022-09-09T10:28:33;6.33;;;1.83;;
15130;SDS011;7666;50.920;4.628;2022-09-09T10:31:25;6.80;;;2.00;;
15130;SDS011;7666;50.920;4.628;2022-09-09T10:37:00;4.60;;;1.60;;
15130;SDS011;7666;50.920;4.628;2022-09-09T10:39:50;5.33;;;1.53;;
15130;SDS011;7666;50.920;4.628;2022-09-09T10:42:43;7.07;;;2.00;;
15130;SDS011;7666;50.920;4.628;2022-09-09T10:45:32;6.97;;;1.90;;
15130;SDS011;7666;50.920;4.628;2022-09-09T10:48:31;7.47;;;2.07;;
15130;SDS011;7666;50.920;4.628;2022-09-09T10:57:10;7.10;;;2.13;;
15130;SDS011;7666;50.920;4.628;2022-09-09T11:00:02;6.57;;;2.00;;
15130;SDS011;7666;50.920;4.628;2022-09-09T11:02:57;6.73;;;2.03;;
15130;SDS011;7666;50.920;4.628;2022-09-09T11:05:45;7.23;;;1.90;;
15130;SDS011;7666;50.920;4.628;2022-09-09T11:08:33;8.13;;;2.40;;
15130;SDS011;7666;50.920;4.628;2022-09-09T11:11:29;8.20;;;2.00;;
15130;SDS011;7666;50.920;4.628;2022-09-09T11:14:20;9.03;;;2.60;;
15130;SDS011;7666;50.920;4.628;2022-09-09T11:17:14;4.87;;;1.87;;
15130;SDS011;7666;50.920;4.628;2022-09-09T11:20:02;6.93;;;2.10;;
15130;SDS011;7666;50.920;4.628;2022-09-09T11:22:53;7.97;;;1.80;;
15130;SDS011;7666;50.920;4.628;2022-09-09T11:25:42;8.07;;;2.13;;
15130;SDS011;7666;50.920;4.628;2022-09-09T11:34:33;6.00;;;1.90;;
15130;SDS011;7666;50.920;4.628;2022-09-09T11:40:23;4.60;;;1.80;;
15130;SDS011;7666;50.920;4.628;2022-09-09T11:43:14;5.03;;;1.67;;
15130;SDS011;7666;50.920;4.628;2022-09-09T11:46:01;3.80;;;1.57;;
15130;SDS011;7666;50.920;4.628;2022-09-09T11:48:58;5.50;;;1.87;;
15130;SDS011;7666;50.920;4.628;2022-09-09T11:51:45;6.40;;;1.47;;
15130;SDS011;7666;50.920;4.628;2022-09-09T11:54:33;3.90;;;1.27;;
15130;SDS011;7666;50.920;4.628;2022-09-09T11:57:34;3.77;;;1.30;;
15130;SDS011;7666;50.920;4.628;2022-09-09T12:00:30;5.87;;;1.40;;
15130;SDS011;7666;50.920;4.628;2022-09-09T12:03:34;6.77;;;1.77;;
15130;SDS011;7666;50.920;4.628;2022-09-09T12:17:50;5.47;;;1.43;;
15130;SDS011;7666;50.920;4.628;2022-09-09T12:20:36;5.23;;;1.50;;
15130;SDS011;7666;50.920;4.628;2022-09-09T12:23:37;4.23;;;1.50;;
15130;SDS011;7666;50.920;4.628;2022-09-09T12:29:33;5.23;;;1.67;;
15130;SDS011;7666;50.920;4.628;2022-09-09T12:32:24;5.00;;;1.60;;
15130;SDS011;7666;50.920;4.628;2022-09-09T12:35:18;4.70;;;1.60;;
15130;SDS011;7666;50.920;4.628;2022-09-09T12:38:06;4.53;;;1.40;;
15130;SDS011;7666;50.920;4.628;2022-09-09T12:40:57;5.10;;;1.40;;
15130;SDS011;7666;50.920;4.628;2022-09-09T12:43:43;4.73;;;1.50;;
15130;SDS011;7666;50.920;4.628;2022-09-09T12:52:17;4.47;;;1.30;;
15130;SDS011;7666;50.920;4.628;2022-09-09T12:55:06;5.40;;;1.43;;
15130;SDS011;7666;50.920;4.628;2022-09-09T12:57:53;3.90;;;1.30;;
15130;SDS011;7666;50.920;4.628;2022-09-09T13:00:48;4.10;;;1.30;;
15130;SDS011;7666;50.920;4.628;2022-09-09T13:03:41;7.83;;;2.00;;
15130;SDS011;7666;50.920;4.628;2022-09-09T13:06:32;4.00;;;1.33;;
15130;SDS011;7666;50.920;4.628;2022-09-09T13:09:19;5.03;;;1.60;;
15130;SDS011;7666;50.920;4.628;2022-09-09T13:12:06;3.23;;;1.00;;
15130;SDS011;7666;50.920;4.628;2022-09-09T13:14:58;4.93;;;1.30;;
15130;SDS011;7666;50.920;4.628;2022-09-09T13:17:48;3.73;;;1.10;;
15130;SDS011;7666;50.920;4.628;2022-09-09T13:20:35;4.07;;;0.90;;
15130;SDS011;7666;50.920;4.628;2022-09-09T13:23:22;5.40;;;1.20;;
15130;SDS011;7666;50.920;4.628;2022-09-09T13:26:20;3.33;;;0.90;;
15130;SDS011;7666;50.920;4.628;2022-09-09T13:29:14;4.30;;;1.20;;
15130;SDS011;7666;50.920;4.628;2022-09-09T13:32:07;4.67;;;1.30;;
15130;SDS011;7666;50.920;4.628;2022-09-09T13:34:59;3.40;;;1.00;;
15130;SDS011;7666;50.920;4.628;2022-09-09T13:37:46;3.77;;;1.20;;
15130;SDS011;7666;50.920;4.628;2022-09-09T13:40:33;4.43;;;1.33;;
15130;SDS011;7666;50.920;4.628;2022-09-09T13:43:21;2.90;;;1.00;;
15130;SDS011;7666;50.920;4.628;2022-09-09T13:52:04;3.67;;;1.17;;
15130;SDS011;7666;50.920;4.628;2022-09-09T13:54:52;3.17;;;1.00;;
15130;SDS011;7666;50.920;4.628;2022-09-09T13:57:39;4.40;;;1.20;;
15130;SDS011;7666;50.920;4.628;2022-09-09T14:00:35;4.97;;;1.43;;
15130;SDS011;7666;50.920;4.628;2022-09-09T14:03:22;3.73;;;1.00;;
15130;SDS011;7666;50.920;4.628;2022-09-09T14:06:09;3.50;;;1.10;;
15130;SDS011;7666;50.920;4.628;2022-09-09T14:08:55;2.97;;;1.20;;
15130;SDS011;7666;50.920;4.628;2022-09-09T14:11:42;3.63;;;0.93;;
15130;SDS011;7666;50.920;4.628;2022-09-09T14:14:29;2.37;;;1.00;;
15130;SDS011;7666;50.920;4.628;2022-09-09T14:17:15;2.30;;;0.90;;
15130;SDS011;7666;50.920;4.628;2022-09-09T14:20:03;4.60;;;1.23;;
15130;SDS011;7666;50.920;4.628;2022-09-09T14:22:56;1.80;;;1.13;;
15130;SDS011;7666;50.920;4.628;2022-09-09T14:25:44;3.87;;;1.17;;
15130;SDS011;7666;50.920;4.628;2022-09-09T14:28:30;4.63;;;1.33;;
15130;SDS011;7666;50.920;4.628;2022-09-09T14:31:17;2.30;;;1.20;;
15130;SDS011;7666;50.920;4.628;2022-09-09T14:34:03;4.40;;;1.10;;
15130;SDS011;7666;50.920;4.628;2022-09-09T14:36:49;2.63;;;0.90;;
15130;SDS011;7666;50.920;4.628;2022-09-09T14:39:36;5.70;;;1.83;;
15130;SDS011;7666;50.920;4.628;2022-09-09T14:42:23;4.23;;;1.07;;
15130;SDS011;7666;50.920;4.628;2022-09-09T14:45:09;4.17;;;1.30;;
15130;SDS011;7666;50.920;4.628;2022-09-09T14:47:56;4.93;;;1.60;;
15130;SDS011;7666;50.920;4.628;2022-09-09T14:50:42;3.73;;;1.23;;
15130;SDS011;7666;50.920;4.628;2022-09-09T14:53:29;2.60;;;1.23;;
15130;SDS011;7666;50.920;4.628;2022-09-09T14:56:16;3.60;;;1.30;;
15130;SDS011;7666;50.920;4.628;2022-09-09T14:59:03;3.03;;;1.10;;
15130;SDS011;7666;50.920;4.628;2022-09-09T15:01:49;4.33;;;1.10;;
15130;SDS011;7666;50.920;4.628;2022-09-09T15:04:36;4.20;;;1.40;;
15130;SDS011;7666;50.920;4.628;2022-09-09T15:07:22;4.37;;;1.43;;
15130;SDS011;7666;50.920;4.628;2022-09-09T15:10:09;3.23;;;1.10;;
15130;SDS011;7666;50.920;4.628;2022-09-09T15:12:56;6.03;;;1.53;;
15130;SDS011;7666;50.920;4.628;2022-09-09T15:15:42;3.20;;;1.10;;
15130;SDS011;7666;50.920;4.628;2022-09-09T15:18:29;3.13;;;1.30;;
15130;SDS011;7666;50.920;4.628;2022-09-09T15:21:16;5.30;;;1.40;;
15130;SDS011;7666;50.920;4.628;2022-09-09T15:24:04;3.73;;;1.40;;
15130;SDS011;7666;50.920;4.628;2022-09-09T15:26:52;3.13;;;1.10;;
15130;SDS011;7666;50.920;4.628;2022-09-09T15:29:39;3.67;;;1.23;;
15130;SDS011;7666;50.920;4.628;2022-09-09T15:32:26;2.63;;;1.10;;
15130;SDS011;7666;50.920;4.628;2022-09-09T15:35:12;3.20;;;1.30;;
15130;SDS011;7666;50.920;4.628;2022-09-09T15:38:01;3.23;;;1.00;;
15130;SDS011;7666;50.920;4.628;2022-09-09T15:40:52;3.77;;;1.10;;
15130;SDS011;7666;50.920;4.628;2022-09-09T15:43:46;4.23;;;1.30;;
15130;SDS011;7666;50.920;4.628;2022-09-09T15:46:41;2.37;;;1.20;;
15130;SDS011;7666;50.920;4.628;2022-09-09T15:49:27;6.20;;;1.40;;
15130;SDS011;7666;50.920;4.628;2022-09-09T15:52:14;3.67;;;1.37;;
15130;SDS011;7666;50.920;4.628;2022-09-09T15:55:00;5.33;;;1.40;;
15130;SDS011;7666;50.920;4.628;2022-09-09T15:57:47;5.60;;;1.60;;
15130;SDS011;7666;50.920;4.628;2022-09-09T16:00:33;3.53;;;1.30;;
15130;SDS011;7666;50.920;4.628;2022-09-09T16:03:20;3.47;;;1.10;;
15130;SDS011;7666;50.920;4.628;2022-09-09T16:06:06;3.90;;;1.20;;
15130;SDS011;7666;50.920;4.628;2022-09-09T16:08:53;3.80;;;1.50;;
15130;SDS011;7666;50.920;4.628;2022-09-09T16:11:39;4.03;;;1.30;;
15130;SDS011;7666;50.920;4.628;2022-09-09T16:14:26;4.17;;;1.17;;
15130;SDS011;7666;50.920;4.628;2022-09-09T16:17:12;5.83;;;1.47;;
15130;SDS011;7666;50.920;4.628;2022-09-09T16:19:59;3.13;;;1.30;;
15130;SDS011;7666;50.920;4.628;2022-09-09T16:22:45;3.27;;;1.40;;
15130;SDS011;7666;50.920;4.628;2022-09-09T16:25:32;3.97;;;1.73;;
15130;SDS011;7666;50.920;4.628;2022-09-09T16:28:18;6.00;;;1.50;;
15130;SDS011;7666;50.920;4.628;2022-09-09T16:31:06;3.63;;;1.20;;
15130;SDS011;7666;50.920;4.628;2022-09-09T16:33:52;2.93;;;1.30;;
15130;SDS011;7666;50.920;4.628;2022-09-09T16:36:39;4.20;;;1.30;;
15130;SDS011;7666;50.920;4.628;2022-09-09T16:39:26;6.17;;;1.43;;
15130;SDS011;7666;50.920;4.628;2022-09-09T16:42:12;3.97;;;1.13;;
15130;SDS011;7666;50.920;4.628;2022-09-09T16:44:58;3.83;;;1.23;;
15130;SDS011;7666;50.920;4.628;2022-09-09T16:47:45;5.80;;;1.30;;
15130;SDS011;7666;50.920;4.628;2022-09-09T16:50:31;2.27;;;1.17;;
15130;SDS011;7666;50.920;4.628;2022-09-09T16:53:18;5.43;;;1.47;;
15130;SDS011;7666;50.920;4.628;2022-09-09T16:56:08;4.83;;;1.50;;
15130;SDS011;7666;50.920;4.628;2022-09-09T16:58:59;3.17;;;1.20;;
15130;SDS011;7666;50.920;4.628;2022-09-09T17:01:47;4.07;;;1.40;;
15130;SDS011;7666;50.920;4.628;2022-09-09T17:04:33;4.70;;;1.40;;
15130;SDS011;7666;50.920;4.628;2022-09-09T17:07:20;5.40;;;1.60;;
15130;SDS011;7666;50.920;4.628;2022-09-09T17:10:07;3.60;;;1.20;;
15130;SDS011;7666;50.920;4.628;2022-09-09T17:12:54;2.67;;;1.10;;
15130;SDS011;7666;50.920;4.628;2022-09-09T17:15:42;3.00;;;1.30;;
15130;SDS011;7666;50.920;4.628;2022-09-09T17:18:28;4.60;;;1.53;;
15130;SDS011;7666;50.920;4.628;2022-09-09T17:21:16;3.87;;;1.10;;
15130;SDS011;7666;50.920;4.628;2022-09-09T17:24:03;3.20;;;1.10;;
15130;SDS011;7666;50.920;4.628;2022-09-09T17:26:49;1.70;;;1.00;;
15130;SDS011;7666;50.920;4.628;2022-09-09T17:29:36;1.70;;;1.10;;
15130;SDS011;7666;50.920;4.628;2022-09-09T17:32:22;3.73;;;1.40;;
15130;SDS011;7666;50.920;4.628;2022-09-09T17:35:09;3.77;;;1.30;;
15130;SDS011;7666;50.920;4.628;2022-09-09T17:37:55;6.47;;;1.33;;
15130;SDS011;7666;50.920;4.628;2022-09-09T17:40:42;2.97;;;1.50;;
15130;SDS011;7666;50.920;4.628;2022-09-09T17:43:28;2.57;;;1.30;;
15130;SDS011;7666;50.920;4.628;2022-09-09T17:46:28;1.97;;;1.10;;
15130;SDS011;7666;50.920;4.628;2022-09-09T17:49:15;2.37;;;0.90;;
15130;SDS011;7666;50.920;4.628;2022-09-09T17:52:02;2.77;;;1.00;;
15130;SDS011;7666;50.920;4.628;2022-09-09T17:54:49;2.93;;;1.30;;
15130;SDS011;7666;50.920;4.628;2022-09-09T17:57:35;4.23;;;1.07;;
15130;SDS011;7666;50.920;4.628;2022-09-09T18:00:22;3.50;;;1.17;;
15130;SDS011;7666;50.920;4.628;2022-09-09T18:03:08;3.67;;;1.10;;
15130;SDS011;7666;50.920;4.628;2022-09-09T18:05:59;3.20;;;1.20;;
15130;SDS011;7666;50.920;4.628;2022-09-09T18:08:55;5.07;;;1.50;;
15130;SDS011;7666;50.920;4.628;2022-09-09T18:11:47;4.97;;;1.63;;
15130;SDS011;7666;50.920;4.628;2022-09-09T18:14:33;5.03;;;1.67;;
15130;SDS011;7666;50.920;4.628;2022-09-09T18:17:19;5.20;;;1.30;;
15130;SDS011;7666;50.920;4.628;2022-09-09T18:20:06;5.53;;;1.40;;
15130;SDS011;7666;50.920;4.628;2022-09-09T18:22:52;6.10;;;1.33;;
15130;SDS011;7666;50.920;4.628;2022-09-09T18:25:39;7.20;;;1.30;;
15130;SDS011;7666;50.920;4.628;2022-09-09T18:28:26;6.60;;;1.40;;
15130;SDS011;7666;50.920;4.628;2022-09-09T18:31:13;5.70;;;1.80;;
15130;SDS011;7666;50.920;4.628;2022-09-09T18:34:00;4.30;;;1.30;;
15130;SDS011;7666;50.920;4.628;2022-09-09T18:36:51;5.87;;;1.40;;
15130;SDS011;7666;50.920;4.628;2022-09-09T18:39:39;3.97;;;1.40;;
15130;SDS011;7666;50.920;4.628;2022-09-09T18:42:25;5.10;;;1.43;;
15130;SDS011;7666;50.920;4.628;2022-09-09T18:45:12;8.07;;;1.60;;
15130;SDS011;7666;50.920;4.628;2022-09-09T18:47:58;5.83;;;1.63;;
15130;SDS011;7666;50.920;4.628;2022-09-09T18:50:45;5.87;;;1.50;;
15130;SDS011;7666;50.920;4.628;2022-09-09T18:53:32;9.93;;;2.93;;
15130;SDS011;7666;50.920;4.628;2022-09-09T18:56:18;8.33;;;2.20;;
15130;SDS011;7666;50.920;4.628;2022-09-09T18:59:05;4.73;;;1.70;;
15130;SDS011;7666;50.920;4.628;2022-09-09T19:01:52;6.40;;;2.13;;
15130;SDS011;7666;50.920;4.628;2022-09-09T19:04:39;6.57;;;1.60;;